Allen Army Airfield Delta Junction Ft Greely US
ICAO: PABI
IATA:
Category: Medium
Scheduled Services:

Elevation: 1291 ft
TransAlt. 18000 ft.

Airport Communications:
ASOS:135.65
ATIS:132.075
TWEB:114.9
ANCHORAGE CNTR:135.3
CTAF:122.9
FAIRBANKS RDO:122.2
FORT GREELY GND:118.225
FT GREELY RANGE CON:38.3
BASE OPS:122.9
TWR:125.325

PABI Zoom In..

Runways:

(A) RW 01 length 9000 ft width 150 ft
---- / hdg 7

(B) RW 07 length 4077 ft width 90 ft
---- / hdg 69

(C) RW 10 length 6115 ft width 150 ft
ILS 111.10 / hdg 102

(D) RW 19 length 9000 ft width 150 ft
---- / hdg 187

(E) RW 25 length 4077 ft width 90 ft
---- / hdg 249

(F) RW 28 length 6115 ft width 150 ft
---- / hdg 282

Location; PABI
Day. 05 / Time. 17.53 Zulu
* Altimeter: 29.94
* Temperature: 13° c. 55.4°f.
* Wind from: 310° Speed 10 kn.
Dewpoint: 05° c.
Visibility: 10 Statute Miles.
Clouds: Few 4500 ft.
Clouds: Scattered 7000 ft.
Clouds: Scattered 1000 ft.
Clouds: Scattered 2000 ft.

PABI 051753Z 31010KT 10SM FEW045 SCT070 SCT100 SCT200 13/05 A2994 RMK AO2 SLP143 T01330050 10133 20056 58005 $


Wind From 310°
Speed 10 kn.

 
 
jpsmedia worldairports.se 2020   terms of use